createdAt,value
2023-04-25T00:00:54.069Z,8.30
2023-04-25T00:03:25.706Z,8.21
2023-04-25T00:05:57.327Z,8.26
2023-04-25T00:08:28.832Z,8.25
2023-04-25T00:11:00.587Z,8.23
2023-04-25T00:13:32.033Z,8.18
2023-04-25T00:16:04.018Z,8.12
2023-04-25T00:18:35.600Z,8.10
2023-04-25T00:21:07.348Z,8.11
2023-04-25T00:23:38.826Z,8.10
2023-04-25T00:26:10.295Z,8.08
2023-04-25T00:28:41.912Z,8.12
2023-04-25T00:31:13.369Z,8.19
2023-04-25T00:33:45.359Z,8.20
2023-04-25T00:36:16.942Z,8.16
2023-04-25T00:38:48.711Z,8.21
2023-04-25T00:41:20.160Z,8.24
2023-04-25T00:43:51.927Z,8.29
2023-04-25T00:46:23.560Z,8.27
2023-04-25T00:48:55.063Z,8.26
2023-04-25T00:51:26.525Z,8.21
2023-04-25T00:53:58.291Z,8.41
2023-04-25T00:56:29.742Z,8.48
2023-04-25T00:59:01.654Z,8.37
2023-04-25T01:01:33.239Z,8.44
2023-04-25T01:04:04.849Z,8.46
2023-04-25T01:06:36.579Z,8.42
2023-04-25T01:09:08.315Z,8.40
2023-04-25T01:11:39.776Z,8.43
2023-04-25T01:14:11.532Z,8.42
2023-04-25T01:16:43.011Z,8.37
2023-04-25T01:19:14.937Z,8.37
2023-04-25T01:21:46.382Z,8.25
2023-04-25T01:24:18.010Z,8.31
2023-04-25T01:26:49.432Z,8.25
2023-04-25T01:29:21.195Z,8.26
2023-04-25T01:31:52.687Z,8.34
2023-04-25T01:34:24.488Z,8.23
2023-04-25T01:36:55.958Z,8.34
2023-04-25T01:39:27.589Z,8.36
2023-04-25T01:41:59.025Z,8.24
2023-04-25T01:44:30.788Z,8.14
2023-04-25T01:47:02.270Z,8.16
2023-04-25T01:49:34.046Z,8.13
2023-04-25T01:52:05.482Z,8.03
2023-04-25T01:54:37.374Z,8.11
2023-04-25T01:57:08.818Z,8.08
2023-04-25T01:59:40.624Z,8.08
2023-04-25T02:02:12.094Z,8.08
2023-04-25T02:04:44.089Z,8.15
2023-04-25T02:07:15.580Z,8.10
2023-04-25T02:09:47.357Z,8.10
2023-04-25T02:12:18.822Z,8.11
2023-04-25T02:14:50.584Z,8.06
2023-04-25T02:17:22.022Z,8.11
2023-04-25T02:19:53.794Z,8.18
2023-04-25T02:22:25.249Z,8.13
2023-04-25T02:24:56.757Z,8.02
2023-04-25T02:27:28.219Z,8.02
2023-04-25T02:29:59.883Z,8.03
2023-04-25T02:32:31.375Z,8.04
2023-04-25T02:35:02.815Z,8.08
2023-04-25T02:37:34.260Z,8.03
2023-04-25T02:40:06.229Z,8.06
2023-04-25T02:42:37.693Z,7.96
2023-04-25T02:45:09.398Z,7.96
2023-04-25T02:47:40.901Z,8.05
2023-04-25T02:50:12.731Z,8.02
2023-04-25T02:52:44.496Z,7.93
2023-04-25T02:55:15.949Z,7.98
2023-04-25T02:57:47.707Z,7.98
2023-04-25T03:00:19.159Z,7.99
2023-04-25T03:02:50.692Z,8.08
2023-04-25T03:05:22.250Z,8.00
2023-04-25T03:07:53.712Z,7.98
2023-04-25T03:10:25.166Z,7.97
2023-04-25T03:12:56.883Z,7.97
2023-04-25T03:15:28.743Z,8.13
2023-04-25T03:18:00.245Z,8.03
2023-04-25T03:20:31.816Z,8.03
2023-04-25T03:23:03.275Z,8.04
2023-04-25T03:25:35.118Z,8.09
2023-04-25T03:28:06.561Z,8.04
2023-04-25T03:30:38.294Z,8.11
2023-04-25T03:33:09.770Z,8.08
2023-04-25T03:35:41.512Z,8.07
2023-04-25T03:38:12.953Z,8.07
2023-04-25T03:40:44.819Z,8.14
2023-04-25T03:43:16.265Z,8.19
2023-04-25T03:45:50.885Z,8.10
2023-04-25T03:48:22.425Z,8.12
2023-04-25T03:50:54.517Z,8.15
2023-04-25T03:53:25.968Z,7.99
2023-04-25T03:55:57.724Z,8.00
2023-04-25T03:58:29.171Z,8.01
2023-04-25T04:01:00.951Z,8.04
2023-04-25T04:03:32.485Z,8.03
2023-04-25T04:06:04.469Z,8.07
2023-04-25T04:08:35.910Z,8.10
2023-04-25T04:11:07.679Z,8.04
2023-04-25T04:13:39.128Z,8.17
2023-04-25T04:16:10.692Z,8.13
2023-04-25T04:18:42.508Z,8.14
2023-04-25T04:21:13.959Z,8.07
2023-04-25T04:23:45.438Z,8.11
2023-04-25T04:26:16.890Z,7.99
2023-04-25T04:28:48.485Z,8.00
2023-04-25T04:31:20.003Z,8.06
2023-04-25T04:33:51.761Z,8.13
2023-04-25T04:36:23.469Z,8.12
2023-04-25T04:38:54.929Z,8.04
2023-04-25T04:41:26.394Z,8.00
2023-04-25T04:43:58.180Z,8.24
2023-04-25T04:46:29.674Z,8.25
2023-04-25T04:49:01.751Z,8.38
2023-04-25T04:51:33.203Z,8.14
2023-04-25T04:54:05.091Z,8.34
2023-04-25T04:56:36.571Z,8.36
2023-04-25T04:59:08.402Z,8.40
2023-04-25T05:01:40.081Z,8.42
2023-04-25T05:04:11.653Z,8.38
2023-04-25T05:06:43.561Z,8.49
2023-04-25T05:09:15.018Z,8.45
2023-04-25T05:11:46.861Z,8.24
2023-04-25T05:14:18.308Z,8.34
2023-04-25T05:16:50.288Z,8.30
2023-04-25T05:19:21.841Z,8.54
2023-04-25T05:21:53.292Z,8.49
2023-04-25T05:24:24.730Z,8.44
2023-04-25T05:26:56.574Z,8.56
2023-04-25T05:29:28.052Z,8.45
2023-04-25T05:31:59.914Z,8.40
2023-04-25T05:34:31.393Z,8.56
2023-04-25T05:37:03.191Z,8.43
2023-04-25T05:39:34.631Z,8.82
2023-04-25T05:42:06.514Z,9.11
2023-04-25T05:44:37.949Z,9.18
2023-04-25T05:47:09.496Z,9.09
2023-04-25T05:49:40.982Z,9.12
2023-04-25T05:52:12.991Z,8.91
2023-04-25T05:54:44.455Z,8.92
2023-04-25T05:57:16.212Z,8.71
2023-04-25T05:59:47.668Z,8.61
2023-04-25T06:02:19.207Z,9.00
2023-04-25T06:04:50.781Z,9.08
2023-04-25T06:07:22.720Z,9.04
2023-04-25T06:09:54.197Z,9.12
2023-04-25T06:12:25.997Z,8.94
2023-04-25T06:14:57.467Z,8.87
2023-04-25T06:17:28.954Z,9.06
2023-04-25T06:20:00.655Z,9.12
2023-04-25T06:22:32.452Z,9.03
2023-04-25T06:25:04.264Z,9.12
2023-04-25T06:27:36.067Z,9.38
2023-04-25T06:30:07.503Z,9.13
2023-04-25T06:32:39.304Z,9.19
2023-04-25T06:35:10.757Z,9.01
2023-04-25T06:37:42.209Z,8.95
2023-04-25T06:40:13.650Z,8.95
2023-04-25T06:42:45.466Z,9.22
2023-04-25T06:45:16.998Z,9.15
2023-04-25T06:47:48.805Z,9.19
2023-04-25T06:50:20.300Z,9.13
2023-04-25T06:55:23.220Z,9.25
2023-04-25T06:57:54.693Z,9.13
2023-04-25T07:00:26.166Z,9.29
2023-04-25T07:02:58.071Z,9.38
2023-04-25T07:05:30.053Z,9.25
2023-04-25T07:08:01.952Z,9.44
2023-04-25T07:10:33.650Z,9.46
2023-04-25T07:13:05.464Z,9.18
2023-04-25T07:15:36.937Z,6.26
2023-04-25T07:18:08.623Z,9.06
2023-04-25T07:20:40.102Z,9.13
2023-04-25T07:23:11.965Z,9.32
2023-04-25T07:25:43.431Z,9.31
2023-04-25T07:28:15.829Z,9.13
2023-04-25T07:30:48.395Z,8.81
2023-04-25T07:33:20.449Z,8.67
2023-04-25T07:35:51.903Z,8.61
2023-04-25T07:38:23.639Z,8.64
2023-04-25T07:40:55.128Z,8.76
2023-04-25T07:43:27.006Z,8.88
2023-04-25T07:45:58.548Z,9.22
2023-04-25T07:48:30.068Z,9.34
2023-04-25T07:51:01.535Z,9.44
2023-04-25T07:56:22.384Z,9.29
2023-04-25T07:58:54.264Z,9.51
2023-04-25T08:01:25.899Z,9.65
2023-04-25T08:03:57.683Z,9.55
2023-04-25T08:06:29.511Z,9.79
2023-04-25T08:09:01.130Z,9.88
2023-04-25T08:11:32.578Z,10.14
2023-04-25T08:14:04.247Z,10.25
2023-04-25T08:16:35.721Z,10.45
2023-04-25T08:19:07.670Z,10.26
2023-04-25T08:21:39.207Z,10.22
2023-04-25T08:24:11.070Z,10.91
2023-04-25T08:26:42.540Z,11.39
2023-04-25T08:29:14.297Z,11.79
2023-04-25T08:31:45.878Z,12.03
2023-04-25T08:34:17.708Z,11.78
2023-04-25T08:36:49.305Z,12.08
2023-04-25T08:39:21.125Z,12.44
2023-04-25T08:41:52.681Z,12.09
2023-04-25T08:44:24.358Z,11.62
2023-04-25T08:46:55.829Z,11.44
2023-04-25T08:49:27.719Z,11.57
2023-04-25T08:51:59.199Z,11.80
2023-04-25T08:54:35.635Z,11.23
2023-04-25T08:57:07.940Z,11.48
2023-04-25T08:59:39.762Z,11.74
2023-04-25T09:02:11.247Z,11.23
2023-04-25T09:04:42.791Z,11.92
2023-04-25T09:07:14.233Z,12.01
2023-04-25T09:09:46.004Z,12.75
2023-04-25T09:12:17.456Z,13.64
2023-04-25T09:14:49.294Z,14.09
2023-04-25T09:17:20.760Z,12.75
2023-04-25T09:19:52.269Z,13.99
2023-04-25T09:22:23.783Z,13.71
2023-04-25T09:24:55.315Z,13.27
2023-04-25T09:27:26.856Z,14.45
2023-04-25T09:29:58.878Z,13.42
2023-04-25T09:32:30.557Z,13.38
2023-04-25T09:35:02.341Z,13.94
2023-04-25T09:37:33.851Z,14.96
2023-04-25T09:40:05.574Z,13.51
2023-04-25T09:42:37.571Z,14.38
2023-04-25T09:45:09.254Z,14.91
2023-04-25T09:47:40.834Z,14.13
2023-04-25T09:50:13.447Z,13.71
2023-04-25T09:52:44.893Z,14.22
2023-04-25T09:55:16.390Z,13.93
2023-04-25T09:57:47.841Z,14.19
2023-04-25T10:00:19.709Z,13.52
2023-04-25T10:02:51.214Z,13.12
2023-04-25T10:05:22.910Z,13.17
2023-04-25T10:07:54.386Z,12.94
2023-04-25T10:10:26.247Z,12.90
2023-04-25T10:12:57.701Z,13.54
2023-04-25T10:15:29.503Z,13.27
2023-04-25T10:18:01.014Z,13.33
2023-04-25T10:20:32.890Z,13.41
2023-04-25T10:23:04.326Z,13.23
2023-04-25T10:25:36.068Z,12.76
2023-04-25T10:28:07.624Z,12.37
2023-04-25T10:30:39.341Z,12.77
2023-04-25T10:33:10.866Z,12.28
2023-04-25T10:35:42.342Z,12.55
2023-04-25T10:38:13.847Z,13.34
2023-04-25T10:40:45.304Z,14.23
2023-04-25T10:43:16.757Z,13.99
2023-04-25T10:45:48.270Z,13.47
2023-04-25T10:48:19.731Z,12.75
2023-04-25T10:50:51.254Z,12.61
2023-04-25T10:53:22.724Z,12.34
2023-04-25T10:55:54.188Z,12.06
2023-04-25T10:58:25.635Z,12.24
2023-04-25T11:00:57.884Z,12.82
2023-04-25T11:03:29.561Z,13.45
2023-04-25T11:06:02.288Z,13.62
2023-04-25T11:08:33.744Z,13.27
2023-04-25T11:11:05.635Z,12.41
2023-04-25T11:13:37.138Z,12.54
2023-04-25T11:16:13.215Z,11.98
2023-04-25T11:18:44.981Z,11.74
2023-04-25T11:21:16.694Z,11.63
2023-04-25T11:23:48.486Z,11.91
2023-04-25T11:26:20.336Z,11.37
2023-04-25T11:28:51.875Z,11.72
2023-04-25T11:31:24.057Z,11.42
2023-04-25T11:33:55.615Z,11.27
2023-04-25T11:36:27.559Z,11.04
2023-04-25T11:38:59.329Z,10.63
2023-04-25T11:41:30.770Z,10.51
2023-04-25T11:44:02.569Z,10.33
2023-04-25T11:46:34.102Z,10.82
2023-04-25T11:49:06.006Z,10.68
2023-04-25T11:51:37.475Z,11.03
2023-04-25T11:54:09.256Z,11.10
2023-04-25T11:56:40.708Z,11.49
2023-04-25T11:59:12.968Z,11.61
2023-04-25T12:01:44.792Z,12.01
2023-04-25T12:04:16.829Z,12.22
2023-04-25T12:06:48.736Z,12.12
2023-04-25T12:09:20.619Z,12.31
2023-04-25T12:11:52.073Z,11.74
2023-04-25T12:14:23.940Z,11.68
2023-04-25T12:16:55.444Z,11.83
2023-04-25T12:19:27.206Z,11.94
2023-04-25T12:22:00.560Z,11.89
2023-04-25T12:24:32.357Z,11.41
2023-04-25T12:27:03.908Z,11.92
2023-04-25T12:29:48.564Z,12.00
2023-04-25T12:32:21.118Z,12.37
2023-04-25T12:34:52.666Z,11.61
2023-04-25T12:37:24.152Z,12.03
2023-04-25T12:39:55.613Z,12.77
2023-04-25T12:42:27.063Z,13.25
2023-04-25T12:44:59.171Z,13.87
2023-04-25T12:47:30.688Z,14.34
2023-04-25T12:50:02.474Z,13.86
2023-04-25T12:52:33.949Z,12.78
2023-04-25T12:55:05.797Z,12.37
2023-04-25T12:57:37.293Z,12.34
2023-04-25T13:00:09.236Z,12.51
2023-04-25T13:02:40.888Z,12.32
2023-04-25T13:05:12.727Z,11.95
2023-04-25T13:07:44.333Z,12.04
2023-04-25T13:10:16.148Z,12.00
2023-04-25T13:12:47.639Z,11.70
2023-04-25T13:15:19.113Z,11.94
2023-04-25T13:17:50.768Z,12.87
2023-04-25T13:20:22.596Z,12.90
2023-04-25T13:22:54.074Z,12.88
2023-04-25T13:25:25.562Z,14.48
2023-04-25T13:27:57.033Z,13.86
2023-04-25T13:30:28.854Z,13.82
2023-04-25T13:33:00.362Z,13.61
2023-04-25T13:35:32.193Z,13.54
2023-04-25T13:38:03.662Z,13.38
2023-04-25T13:40:35.500Z,13.23
2023-04-25T13:43:06.933Z,12.93
2023-04-25T13:45:38.783Z,12.61
2023-04-25T13:48:10.264Z,12.14
2023-04-25T13:50:42.000Z,12.59
2023-04-25T13:53:13.468Z,12.55
2023-04-25T13:55:45.289Z,12.70
2023-04-25T13:58:16.785Z,12.53
2023-04-25T14:00:48.516Z,12.05
2023-04-25T14:03:20.064Z,11.71
2023-04-25T14:05:51.668Z,11.66
2023-04-25T14:08:23.134Z,11.17
2023-04-25T14:10:54.634Z,11.62
2023-04-25T14:13:26.138Z,11.50
2023-04-25T14:15:58.017Z,11.26
2023-04-25T14:18:29.503Z,10.81
2023-04-25T14:21:01.323Z,10.71
2023-04-25T14:23:32.777Z,10.60
2023-04-25T14:26:04.697Z,10.28
2023-04-25T14:28:36.195Z,10.36
2023-04-25T14:31:08.036Z,10.35
2023-04-25T14:33:39.504Z,10.13
2023-04-25T14:36:11.377Z,10.31
2023-04-25T14:38:42.932Z,10.58
2023-04-25T14:41:14.623Z,10.82
2023-04-25T14:43:46.191Z,10.73
2023-04-25T14:46:17.947Z,10.88
2023-04-25T14:48:49.506Z,11.14
2023-04-25T14:51:21.388Z,11.53
2023-04-25T14:53:53.001Z,12.06
2023-04-25T14:56:24.884Z,12.28
2023-04-25T14:58:56.370Z,12.39
2023-04-25T15:01:28.101Z,12.45
2023-04-25T15:03:59.981Z,12.12
2023-04-25T15:06:31.827Z,12.00
2023-04-25T15:09:03.309Z,11.71
2023-04-25T15:11:35.133Z,11.73
2023-04-25T15:14:06.697Z,11.69
2023-04-25T15:16:38.519Z,11.49
2023-04-25T15:19:09.993Z,11.32
2023-04-25T15:21:41.814Z,10.97
2023-04-25T15:24:13.278Z,11.33
2023-04-25T15:26:45.058Z,11.07
2023-04-25T15:29:16.521Z,11.15
2023-04-25T15:31:48.434Z,11.47
2023-04-25T15:34:20.226Z,11.65
2023-04-25T15:36:51.677Z,11.12
2023-04-25T15:39:23.433Z,11.43
2023-04-25T15:41:54.900Z,11.45
2023-04-25T15:44:26.406Z,11.62
2023-04-25T15:46:57.889Z,12.24
2023-04-25T15:49:29.741Z,11.96
2023-04-25T15:52:01.204Z,11.20
2023-04-25T15:54:32.711Z,11.16
2023-04-25T15:57:04.163Z,11.17
2023-04-25T15:59:35.667Z,10.95
2023-04-25T16:02:07.164Z,11.06
2023-04-25T16:04:38.884Z,10.87
2023-04-25T16:07:10.407Z,11.11
2023-04-25T16:09:42.188Z,10.74
2023-04-25T16:12:13.699Z,10.53
2023-04-25T16:14:45.457Z,10.48
2023-04-25T16:17:16.942Z,10.75
2023-04-25T16:19:48.801Z,10.70
2023-04-25T16:22:20.250Z,10.52
2023-04-25T16:24:51.715Z,10.33
2023-04-25T16:27:23.165Z,10.09
2023-04-25T16:29:54.665Z,9.97
2023-04-25T16:32:26.173Z,10.12
2023-04-25T16:34:59.004Z,10.20
2023-04-25T16:37:30.659Z,10.13
2023-04-25T16:40:02.158Z,10.03
2023-04-25T16:42:33.645Z,9.91
2023-04-25T16:45:05.496Z,9.84
2023-04-25T16:47:37.053Z,9.58
2023-04-25T16:50:08.737Z,9.34
2023-04-25T16:52:40.539Z,9.40
2023-04-25T16:55:12.397Z,9.38
2023-04-25T16:57:43.891Z,9.51
2023-04-25T17:00:15.430Z,9.46
2023-04-25T17:02:47.279Z,9.26
2023-04-25T17:05:19.077Z,9.59
2023-04-25T17:07:50.531Z,9.71
2023-04-25T17:10:22.371Z,9.71
2023-04-25T17:12:53.855Z,9.97
2023-04-25T17:15:25.489Z,9.56
2023-04-25T17:17:57.295Z,9.71
2023-04-25T17:20:29.037Z,9.72
2023-04-25T17:23:00.557Z,9.50
2023-04-25T17:25:32.070Z,9.45
2023-04-25T17:28:03.635Z,9.47
2023-04-25T17:30:35.601Z,9.40
2023-04-25T17:33:07.300Z,9.31
2023-04-25T17:35:38.900Z,9.27
2023-04-25T17:38:10.465Z,9.26
2023-04-25T17:40:42.268Z,9.07
2023-04-25T17:43:13.769Z,9.04
2023-04-25T17:45:45.334Z,9.05
2023-04-25T17:48:16.822Z,8.94
2023-04-25T17:50:48.459Z,8.86
2023-04-25T17:53:20.024Z,8.82
2023-04-25T17:55:51.539Z,8.68
2023-04-25T17:58:23.020Z,8.55
2023-04-25T18:00:54.549Z,8.42
2023-04-25T18:03:26.183Z,8.50
2023-04-25T18:05:57.794Z,8.41
2023-04-25T18:08:29.289Z,8.41
2023-04-25T18:11:01.049Z,8.35
2023-04-25T18:13:32.718Z,8.24
2023-04-25T18:16:04.308Z,8.30
2023-04-25T18:18:36.180Z,8.34
2023-04-25T18:21:08.278Z,8.36
2023-04-25T18:23:39.738Z,8.45
2023-04-25T18:26:11.199Z,8.43
2023-04-25T18:28:43.006Z,8.47
2023-04-25T18:31:14.505Z,8.55
2023-04-25T18:33:49.437Z,8.51
2023-04-25T18:36:21.070Z,8.52
2023-04-25T18:38:55.203Z,8.42
2023-04-25T18:44:06.132Z,8.39
2023-04-25T18:46:37.614Z,8.39
2023-04-25T18:49:09.442Z,8.43
2023-04-25T18:51:41.018Z,8.35
2023-04-25T18:54:12.699Z,8.32
2023-04-25T18:56:44.208Z,8.40
2023-04-25T18:59:15.708Z,8.40
2023-04-25T19:01:47.277Z,8.46
2023-04-25T19:04:19.168Z,8.42
2023-04-25T19:06:50.748Z,8.39
2023-04-25T19:09:22.638Z,8.36
2023-04-25T19:11:54.162Z,8.37
2023-04-25T19:14:25.775Z,8.30
2023-04-25T19:16:57.297Z,8.25
2023-04-25T19:19:28.811Z,8.19
2023-04-25T19:22:00.329Z,7.95
2023-04-25T19:24:33.918Z,7.99
2023-04-25T19:27:06.141Z,7.93
2023-04-25T19:29:37.971Z,7.87
2023-04-25T19:32:09.422Z,7.78
2023-04-25T19:34:41.221Z,7.74
2023-04-25T19:37:12.752Z,7.64
2023-04-25T19:39:44.515Z,7.55
2023-04-25T19:42:15.999Z,7.52
2023-04-25T19:44:47.557Z,7.52
2023-04-25T19:47:19.145Z,7.45
2023-04-25T19:49:50.705Z,7.41
2023-04-25T19:52:22.171Z,7.37
2023-04-25T19:54:53.639Z,7.31
2023-04-25T19:57:25.122Z,7.29
2023-04-25T19:59:56.606Z,7.28
2023-04-25T20:02:28.165Z,7.27
2023-04-25T20:05:00.090Z,7.25
2023-04-25T20:07:31.594Z,7.15
2023-04-25T20:10:03.094Z,7.16
2023-04-25T20:12:34.543Z,7.08
2023-04-25T20:15:06.308Z,7.07
2023-04-25T20:17:37.847Z,7.05
2023-04-25T20:20:09.421Z,7.02
2023-04-25T20:22:40.927Z,6.97
2023-04-25T20:25:12.766Z,6.87
2023-04-25T20:27:44.266Z,5.16
2023-04-25T20:30:15.770Z,6.84
2023-04-25T20:32:47.273Z,6.72
2023-04-25T20:35:19.061Z,6.72
2023-04-25T20:37:50.522Z,6.66
2023-04-25T20:40:22.158Z,6.56
2023-04-25T20:42:53.600Z,6.56
2023-04-25T20:45:25.408Z,6.55
2023-04-25T20:47:56.960Z,6.48
2023-04-25T20:50:28.776Z,6.46
2023-04-25T20:53:00.249Z,6.45
2023-04-25T20:55:32.354Z,6.46
2023-04-25T20:58:03.834Z,6.50
2023-04-25T21:00:35.813Z,6.48
2023-04-25T21:03:07.905Z,6.60
2023-04-25T21:05:39.505Z,6.60
2023-04-25T21:08:10.971Z,6.62
2023-04-25T21:10:42.467Z,6.66
2023-04-25T21:13:14.415Z,6.66
2023-04-25T21:15:45.908Z,6.59
2023-04-25T21:18:17.878Z,6.64
2023-04-25T21:20:49.374Z,6.64
2023-04-25T21:23:21.167Z,6.63
2023-04-25T21:25:52.606Z,6.58
2023-04-25T21:28:24.276Z,6.59
2023-04-25T21:30:55.777Z,6.59
2023-04-25T21:33:27.592Z,6.50
2023-04-25T21:35:59.053Z,6.48
2023-04-25T21:38:30.524Z,6.41
2023-04-25T21:41:01.991Z,6.34
2023-04-25T21:43:33.723Z,6.34
2023-04-25T21:48:39.794Z,6.24
2023-04-25T21:51:11.240Z,6.20
2023-04-25T21:53:43.116Z,6.13
2023-04-25T21:56:14.569Z,6.13
2023-04-25T21:58:46.367Z,6.05
2023-04-25T22:01:17.897Z,6.01
2023-04-25T22:03:49.670Z,5.88
2023-04-25T22:06:21.314Z,5.87
2023-04-25T22:08:53.078Z,5.89
2023-04-25T22:11:24.786Z,5.86
2023-04-25T22:13:56.258Z,5.81
2023-04-25T22:16:27.917Z,5.79
2023-04-25T22:18:59.798Z,5.74
2023-04-25T22:21:32.078Z,5.71
2023-04-25T22:24:03.554Z,5.68
2023-04-25T22:26:34.999Z,5.61
2023-04-25T22:29:07.721Z,5.61
2023-04-25T22:31:39.618Z,5.61
2023-04-25T22:34:11.787Z,5.57
2023-04-25T22:36:43.535Z,5.55
2023-04-25T22:39:15.389Z,5.52
2023-04-25T22:41:47.017Z,5.50
2023-04-25T22:44:19.618Z,5.51
2023-04-25T22:46:51.245Z,5.46
2023-04-25T22:49:23.009Z,5.42
2023-04-25T22:51:54.486Z,5.40
2023-04-25T22:54:25.986Z,5.37
2023-04-25T22:56:57.680Z,5.36
2023-04-25T22:59:29.924Z,5.33
2023-04-25T23:02:01.436Z,5.23
2023-04-25T23:04:33.757Z,5.23
2023-04-25T23:07:06.124Z,5.19
2023-04-25T23:09:38.302Z,5.16
2023-04-25T23:12:10.077Z,5.17
2023-04-25T23:14:42.182Z,5.11
2023-04-25T23:17:13.770Z,5.11
2023-04-25T23:19:45.555Z,5.12
2023-04-25T23:22:16.991Z,5.06
2023-04-25T23:24:49.251Z,5.01
2023-04-25T23:27:20.716Z,4.99
2023-04-25T23:29:52.359Z,4.98
2023-04-25T23:32:24.074Z,4.96
2023-04-25T23:34:55.646Z,4.91
2023-04-25T23:37:27.419Z,4.89
2023-04-25T23:39:59.882Z,4.86
2023-04-25T23:42:31.341Z,4.84
2023-04-25T23:45:03.941Z,4.77
2023-04-25T23:47:35.516Z,4.74
2023-04-25T23:50:07.241Z,4.74
2023-04-25T23:52:38.752Z,4.67
2023-04-25T23:55:10.527Z,4.58
2023-04-25T23:57:41.976Z,4.57
